<?xml version="1.0" encoding="UTF-8" standalone="no" ?>
<gpx xmlns="http://www.topografix.com/GPX/1/1" xmlns:xsi="http://www.w3.org/2001/XMLSchema-instance" xsi:schemaLocation="http://www.topografix.com/GPX/1/1 http://www.topografix.com/GPX/1/1/gpx.xsd" version="1.1" creator="VisuGPX - https://www.visugpx.com">
  <metadata>
    <name>Les Reculées de Baume-les-Messieurs</name>
  </metadata>
  <wpt lat="46.74455" lon="5.6264">
    <ele>266</ele>
    <name><![CDATA[Parking au bord de la Seille]]></name>
  </wpt>
  <wpt lat="46.75379" lon="5.63465">
    <ele>457</ele>
    <name><![CDATA[Sommet de combe]]></name>
  </wpt>
  <wpt lat="46.74842" lon="5.66981">
    <ele>317</ele>
    <name><![CDATA[Première à droite. Traverser la]]></name>
  </wpt>
  <wpt lat="46.74464" lon="5.67249">
    <ele>494</ele>
    <name><![CDATA[Station monte charges]]></name>
  </wpt>
  <wpt lat="46.71367" lon="5.64567">
    <ele>483</ele>
    <name><![CDATA[Suivre D 210]]></name>
  </wpt>
  <wpt lat="46.70638" lon="5.65882">
    <ele>499</ele>
    <name><![CDATA[Prendre Croix de Suchot]]></name>
  </wpt>
  <wpt lat="46.70438" lon="5.65243">
    <ele>468</ele>
    <name><![CDATA[Longer la falaise par la gauche]]></name>
  </wpt>
  <wpt lat="46.69635" lon="5.66033">
    <ele>510</ele>
    <name><![CDATA[Jonction GR59]]></name>
  </wpt>
  <wpt lat="46.71189" lon="5.63207">
    <ele>296</ele>
    <name><![CDATA[Prendre le coteau de Face]]></name>
  </wpt>
  <wpt lat="46.71544" lon="5.621">
    <ele>485</ele>
    <name><![CDATA[Carrefour GR]]></name>
  </wpt>
  <wpt lat="46.72311" lon="5.62248">
    <ele>493</ele>
    <name><![CDATA[A la ferme]]></name>
  </wpt>
  <wpt lat="46.74455" lon="5.62639">
    <ele>266</ele>
    <name><![CDATA[Parking au bord de la Seille]]></name>
  </wpt>
  <trk>
    <name><![CDATA[Les Reculées de Baume-les-Messieurs]]></name>
    <trkseg>
      <trkpt lat="46.74455" lon="5.6264">
        <ele>266</ele>
        <time>2021-08-01T14:55:15+02:00</time>
      </trkpt>
      <trkpt lat="46.74482" lon="5.62652">
        <ele>267</ele>
        <time>2021-08-01T14:55:20+02:00</time>
      </trkpt>
      <trkpt lat="46.74506" lon="5.62701">
        <ele>273</ele>
        <time>2021-08-01T14:55:25+02:00</time>
      </trkpt>
      <trkpt lat="46.74562" lon="5.62748">
        <ele>284</ele>
        <time>2021-08-01T14:55:30+02:00</time>
      </trkpt>
      <trkpt lat="46.74632" lon="5.62762">
        <ele>297</ele>
        <time>2021-08-01T14:55:35+02:00</time>
      </trkpt>
      <trkpt lat="46.74654" lon="5.62835">
        <ele>314</ele>
        <time>2021-08-01T14:55:40+02:00</time>
      </trkpt>
      <trkpt lat="46.74706" lon="5.62808">
        <ele>318</ele>
        <time>2021-08-01T14:55:45+02:00</time>
      </trkpt>
      <trkpt lat="46.74733" lon="5.62784">
        <ele>319</ele>
        <time>2021-08-01T14:55:50+02:00</time>
      </trkpt>
      <trkpt lat="46.74748" lon="5.62752">
        <ele>317</ele>
        <time>2021-08-01T14:55:55+02:00</time>
      </trkpt>
      <trkpt lat="46.74767" lon="5.62743">
        <ele>317</ele>
        <time>2021-08-01T14:56:00+02:00</time>
      </trkpt>
      <trkpt lat="46.748" lon="5.62771">
        <ele>325</ele>
        <time>2021-08-01T14:56:05+02:00</time>
      </trkpt>
      <trkpt lat="46.74819" lon="5.62787">
        <ele>329</ele>
        <time>2021-08-01T14:56:10+02:00</time>
      </trkpt>
      <trkpt lat="46.7484" lon="5.62764">
        <ele>326</ele>
        <time>2021-08-01T14:56:15+02:00</time>
      </trkpt>
      <trkpt lat="46.74863" lon="5.62744">
        <ele>322</ele>
        <time>2021-08-01T14:56:20+02:00</time>
      </trkpt>
      <trkpt lat="46.74894" lon="5.62773">
        <ele>327</ele>
        <time>2021-08-01T14:56:25+02:00</time>
      </trkpt>
      <trkpt lat="46.74929" lon="5.628">
        <ele>332</ele>
        <time>2021-08-01T14:56:30+02:00</time>
      </trkpt>
      <trkpt lat="46.7496" lon="5.6282">
        <ele>335</ele>
        <time>2021-08-01T14:56:35+02:00</time>
      </trkpt>
      <trkpt lat="46.74989" lon="5.62851">
        <ele>341</ele>
        <time>2021-08-01T14:56:40+02:00</time>
      </trkpt>
      <trkpt lat="46.75005" lon="5.62886">
        <ele>349</ele>
        <time>2021-08-01T14:56:45+02:00</time>
      </trkpt>
      <trkpt lat="46.75035" lon="5.62908">
        <ele>354</ele>
        <time>2021-08-01T14:56:50+02:00</time>
      </trkpt>
      <trkpt lat="46.75067" lon="5.62913">
        <ele>355</ele>
        <time>2021-08-01T14:56:55+02:00</time>
      </trkpt>
      <trkpt lat="46.75096" lon="5.62931">
        <ele>362</ele>
        <time>2021-08-01T14:57:00+02:00</time>
      </trkpt>
      <trkpt lat="46.75122" lon="5.62945">
        <ele>368</ele>
        <time>2021-08-01T14:57:05+02:00</time>
      </trkpt>
      <trkpt lat="46.75147" lon="5.62944">
        <ele>368</ele>
        <time>2021-08-01T14:57:10+02:00</time>
      </trkpt>
      <trkpt lat="46.75173" lon="5.62957">
        <ele>372</ele>
        <time>2021-08-01T14:57:15+02:00</time>
      </trkpt>
      <trkpt lat="46.75206" lon="5.62988">
        <ele>381</ele>
        <time>2021-08-01T14:57:20+02:00</time>
      </trkpt>
      <trkpt lat="46.75227" lon="5.63015">
        <ele>385</ele>
        <time>2021-08-01T14:57:25+02:00</time>
      </trkpt>
      <trkpt lat="46.75255" lon="5.63059">
        <ele>391</ele>
        <time>2021-08-01T14:57:30+02:00</time>
      </trkpt>
      <trkpt lat="46.75279" lon="5.631">
        <ele>401</ele>
        <time>2021-08-01T14:57:35+02:00</time>
      </trkpt>
      <trkpt lat="46.75295" lon="5.63143">
        <ele>409</ele>
        <time>2021-08-01T14:57:40+02:00</time>
      </trkpt>
      <trkpt lat="46.75301" lon="5.63176">
        <ele>413</ele>
        <time>2021-08-01T14:57:45+02:00</time>
      </trkpt>
      <trkpt lat="46.75304" lon="5.63231">
        <ele>423</ele>
        <time>2021-08-01T14:57:50+02:00</time>
      </trkpt>
      <trkpt lat="46.7531" lon="5.63289">
        <ele>432</ele>
        <time>2021-08-01T14:57:55+02:00</time>
      </trkpt>
      <trkpt lat="46.75322" lon="5.63356">
        <ele>440</ele>
        <time>2021-08-01T14:58:00+02:00</time>
      </trkpt>
      <trkpt lat="46.75337" lon="5.63415">
        <ele>447</ele>
        <time>2021-08-01T14:58:05+02:00</time>
      </trkpt>
      <trkpt lat="46.75354" lon="5.63444">
        <ele>452</ele>
        <time>2021-08-01T14:58:10+02:00</time>
      </trkpt>
      <trkpt lat="46.75379" lon="5.63465">
        <ele>457</ele>
        <time>2021-08-01T14:58:15+02:00</time>
      </trkpt>
      <trkpt lat="46.75433" lon="5.635">
        <ele>463</ele>
        <time>2021-08-01T14:58:20+02:00</time>
      </trkpt>
      <trkpt lat="46.75469" lon="5.63532">
        <ele>465</ele>
        <time>2021-08-01T14:58:25+02:00</time>
      </trkpt>
      <trkpt lat="46.75473" lon="5.63577">
        <ele>466</ele>
        <time>2021-08-01T14:58:30+02:00</time>
      </trkpt>
      <trkpt lat="46.75524" lon="5.63584">
        <ele>467</ele>
        <time>2021-08-01T14:58:35+02:00</time>
      </trkpt>
      <trkpt lat="46.75551" lon="5.63895">
        <ele>468</ele>
        <time>2021-08-01T14:58:40+02:00</time>
      </trkpt>
      <trkpt lat="46.75542" lon="5.63978">
        <ele>469</ele>
        <time>2021-08-01T14:58:45+02:00</time>
      </trkpt>
      <trkpt lat="46.75538" lon="5.64066">
        <ele>471</ele>
        <time>2021-08-01T14:58:50+02:00</time>
      </trkpt>
      <trkpt lat="46.75553" lon="5.64197">
        <ele>473</ele>
        <time>2021-08-01T14:58:55+02:00</time>
      </trkpt>
      <trkpt lat="46.75544" lon="5.64272">
        <ele>473</ele>
        <time>2021-08-01T14:59:00+02:00</time>
      </trkpt>
      <trkpt lat="46.75548" lon="5.64365">
        <ele>470</ele>
        <time>2021-08-01T14:59:05+02:00</time>
      </trkpt>
      <trkpt lat="46.75541" lon="5.64453">
        <ele>473</ele>
        <time>2021-08-01T14:59:10+02:00</time>
      </trkpt>
      <trkpt lat="46.75539" lon="5.64663">
        <ele>478</ele>
        <time>2021-08-01T14:59:15+02:00</time>
      </trkpt>
      <trkpt lat="46.75525" lon="5.64751">
        <ele>482</ele>
        <time>2021-08-01T14:59:20+02:00</time>
      </trkpt>
      <trkpt lat="46.75494" lon="5.64821">
        <ele>481</ele>
        <time>2021-08-01T14:59:25+02:00</time>
      </trkpt>
      <trkpt lat="46.75457" lon="5.64957">
        <ele>483</ele>
        <time>2021-08-01T14:59:30+02:00</time>
      </trkpt>
      <trkpt lat="46.75436" lon="5.65016">
        <ele>483</ele>
        <time>2021-08-01T14:59:35+02:00</time>
      </trkpt>
      <trkpt lat="46.75427" lon="5.65106">
        <ele>481</ele>
        <time>2021-08-01T14:59:40+02:00</time>
      </trkpt>
      <trkpt lat="46.75348" lon="5.65208">
        <ele>496</ele>
        <time>2021-08-01T14:59:45+02:00</time>
      </trkpt>
      <trkpt lat="46.75382" lon="5.65285">
        <ele>507</ele>
        <time>2021-08-01T14:59:50+02:00</time>
      </trkpt>
      <trkpt lat="46.75425" lon="5.65357">
        <ele>516</ele>
        <time>2021-08-01T14:59:55+02:00</time>
      </trkpt>
      <trkpt lat="46.7551" lon="5.65451">
        <ele>522</ele>
        <time>2021-08-01T15:00:00+02:00</time>
      </trkpt>
      <trkpt lat="46.75464" lon="5.65429">
        <ele>523</ele>
        <time>2021-08-01T15:00:05+02:00</time>
      </trkpt>
      <trkpt lat="46.75422" lon="5.65432">
        <ele>527</ele>
        <time>2021-08-01T15:00:10+02:00</time>
      </trkpt>
      <trkpt lat="46.75372" lon="5.65483">
        <ele>532</ele>
        <time>2021-08-01T15:00:15+02:00</time>
      </trkpt>
      <trkpt lat="46.75349" lon="5.65546">
        <ele>532</ele>
        <time>2021-08-01T15:00:20+02:00</time>
      </trkpt>
      <trkpt lat="46.75368" lon="5.65576">
        <ele>532</ele>
        <time>2021-08-01T15:00:25+02:00</time>
      </trkpt>
      <trkpt lat="46.75382" lon="5.65636">
        <ele>533</ele>
        <time>2021-08-01T15:00:30+02:00</time>
      </trkpt>
      <trkpt lat="46.75392" lon="5.65678">
        <ele>533</ele>
        <time>2021-08-01T15:00:35+02:00</time>
      </trkpt>
      <trkpt lat="46.75397" lon="5.6573">
        <ele>532</ele>
        <time>2021-08-01T15:00:40+02:00</time>
      </trkpt>
      <trkpt lat="46.75371" lon="5.65837">
        <ele>528</ele>
        <time>2021-08-01T15:00:45+02:00</time>
      </trkpt>
      <trkpt lat="46.7536" lon="5.65944">
        <ele>525</ele>
        <time>2021-08-01T15:00:50+02:00</time>
      </trkpt>
      <trkpt lat="46.75347" lon="5.65977">
        <ele>525</ele>
        <time>2021-08-01T15:00:55+02:00</time>
      </trkpt>
      <trkpt lat="46.7535" lon="5.66018">
        <ele>523</ele>
        <time>2021-08-01T15:01:00+02:00</time>
      </trkpt>
      <trkpt lat="46.75342" lon="5.661">
        <ele>516</ele>
        <time>2021-08-01T15:01:05+02:00</time>
      </trkpt>
      <trkpt lat="46.75329" lon="5.66182">
        <ele>503</ele>
        <time>2021-08-01T15:01:10+02:00</time>
      </trkpt>
      <trkpt lat="46.75309" lon="5.66221">
        <ele>496</ele>
        <time>2021-08-01T15:01:15+02:00</time>
      </trkpt>
      <trkpt lat="46.75277" lon="5.66248">
        <ele>489</ele>
        <time>2021-08-01T15:01:20+02:00</time>
      </trkpt>
      <trkpt lat="46.75238" lon="5.66348">
        <ele>464</ele>
        <time>2021-08-01T15:01:25+02:00</time>
      </trkpt>
      <trkpt lat="46.75151" lon="5.66421">
        <ele>432</ele>
        <time>2021-08-01T15:01:30+02:00</time>
      </trkpt>
      <trkpt lat="46.7508" lon="5.66414">
        <ele>402</ele>
        <time>2021-08-01T15:01:35+02:00</time>
      </trkpt>
      <trkpt lat="46.74995" lon="5.66433">
        <ele>384</ele>
        <time>2021-08-01T15:01:40+02:00</time>
      </trkpt>
      <trkpt lat="46.75003" lon="5.66343">
        <ele>363</ele>
        <time>2021-08-01T15:01:45+02:00</time>
      </trkpt>
      <trkpt lat="46.7493" lon="5.66319">
        <ele>349</ele>
        <time>2021-08-01T15:01:50+02:00</time>
      </trkpt>
      <trkpt lat="46.74819" lon="5.66324">
        <ele>328</ele>
        <time>2021-08-01T15:01:55+02:00</time>
      </trkpt>
      <trkpt lat="46.74785" lon="5.66356">
        <ele>323</ele>
        <time>2021-08-01T15:02:00+02:00</time>
      </trkpt>
      <trkpt lat="46.74752" lon="5.66413">
        <ele>318</ele>
        <time>2021-08-01T15:02:05+02:00</time>
      </trkpt>
      <trkpt lat="46.74753" lon="5.66487">
        <ele>318</ele>
        <time>2021-08-01T15:02:10+02:00</time>
      </trkpt>
      <trkpt lat="46.74757" lon="5.66565">
        <ele>317</ele>
        <time>2021-08-01T15:02:15+02:00</time>
      </trkpt>
      <trkpt lat="46.74726" lon="5.66635">
        <ele>312</ele>
        <time>2021-08-01T15:02:20+02:00</time>
      </trkpt>
      <trkpt lat="46.74766" lon="5.66845">
        <ele>317</ele>
        <time>2021-08-01T15:02:25+02:00</time>
      </trkpt>
      <trkpt lat="46.74842" lon="5.66981">
        <ele>317</ele>
        <time>2021-08-01T15:02:30+02:00</time>
      </trkpt>
      <trkpt lat="46.74824" lon="5.67033">
        <ele>319</ele>
        <time>2021-08-01T15:02:35+02:00</time>
      </trkpt>
      <trkpt lat="46.74838" lon="5.67076">
        <ele>320</ele>
        <time>2021-08-01T15:02:40+02:00</time>
      </trkpt>
      <trkpt lat="46.74844" lon="5.67119">
        <ele>322</ele>
        <time>2021-08-01T15:02:45+02:00</time>
      </trkpt>
      <trkpt lat="46.74837" lon="5.67195">
        <ele>327</ele>
        <time>2021-08-01T15:02:50+02:00</time>
      </trkpt>
      <trkpt lat="46.74828" lon="5.6724">
        <ele>333</ele>
        <time>2021-08-01T15:02:55+02:00</time>
      </trkpt>
      <trkpt lat="46.74797" lon="5.67295">
        <ele>351</ele>
        <time>2021-08-01T15:03:00+02:00</time>
      </trkpt>
      <trkpt lat="46.74764" lon="5.67277">
        <ele>368</ele>
        <time>2021-08-01T15:03:05+02:00</time>
      </trkpt>
      <trkpt lat="46.74757" lon="5.67216">
        <ele>366</ele>
        <time>2021-08-01T15:03:10+02:00</time>
      </trkpt>
      <trkpt lat="46.74728" lon="5.67236">
        <ele>382</ele>
        <time>2021-08-01T15:03:15+02:00</time>
      </trkpt>
      <trkpt lat="46.74689" lon="5.67213">
        <ele>394</ele>
        <time>2021-08-01T15:03:20+02:00</time>
      </trkpt>
      <trkpt lat="46.74613" lon="5.67191">
        <ele>419</ele>
        <time>2021-08-01T15:03:25+02:00</time>
      </trkpt>
      <trkpt lat="46.74546" lon="5.67146">
        <ele>444</ele>
        <time>2021-08-01T15:03:30+02:00</time>
      </trkpt>
      <trkpt lat="46.7455" lon="5.67243">
        <ele>460</ele>
        <time>2021-08-01T15:03:35+02:00</time>
      </trkpt>
      <trkpt lat="46.74616" lon="5.67376">
        <ele>468</ele>
        <time>2021-08-01T15:03:40+02:00</time>
      </trkpt>
      <trkpt lat="46.74579" lon="5.67371">
        <ele>483</ele>
        <time>2021-08-01T15:03:45+02:00</time>
      </trkpt>
      <trkpt lat="46.74557" lon="5.67343">
        <ele>484</ele>
        <time>2021-08-01T15:03:50+02:00</time>
      </trkpt>
      <trkpt lat="46.74511" lon="5.67292">
        <ele>489</ele>
        <time>2021-08-01T15:03:55+02:00</time>
      </trkpt>
      <trkpt lat="46.74464" lon="5.67249">
        <ele>494</ele>
        <time>2021-08-01T15:04:00+02:00</time>
      </trkpt>
      <trkpt lat="46.74414" lon="5.6732">
        <ele>510</ele>
        <time>2021-08-01T15:04:05+02:00</time>
      </trkpt>
      <trkpt lat="46.74366" lon="5.67356">
        <ele>516</ele>
        <time>2021-08-01T15:04:10+02:00</time>
      </trkpt>
      <trkpt lat="46.743" lon="5.67247">
        <ele>517</ele>
        <time>2021-08-01T15:04:15+02:00</time>
      </trkpt>
      <trkpt lat="46.74274" lon="5.6719">
        <ele>518</ele>
        <time>2021-08-01T15:04:20+02:00</time>
      </trkpt>
      <trkpt lat="46.74228" lon="5.67134">
        <ele>516</ele>
        <time>2021-08-01T15:04:25+02:00</time>
      </trkpt>
      <trkpt lat="46.74239" lon="5.67004">
        <ele>510</ele>
        <time>2021-08-01T15:04:30+02:00</time>
      </trkpt>
      <trkpt lat="46.74179" lon="5.66991">
        <ele>510</ele>
        <time>2021-08-01T15:04:35+02:00</time>
      </trkpt>
      <trkpt lat="46.74119" lon="5.66999">
        <ele>510</ele>
        <time>2021-08-01T15:04:40+02:00</time>
      </trkpt>
      <trkpt lat="46.74061" lon="5.67009">
        <ele>510</ele>
        <time>2021-08-01T15:04:45+02:00</time>
      </trkpt>
      <trkpt lat="46.7401" lon="5.66989">
        <ele>507</ele>
        <time>2021-08-01T15:04:50+02:00</time>
      </trkpt>
      <trkpt lat="46.73962" lon="5.66954">
        <ele>506</ele>
        <time>2021-08-01T15:04:55+02:00</time>
      </trkpt>
      <trkpt lat="46.73914" lon="5.66897">
        <ele>506</ele>
        <time>2021-08-01T15:05:00+02:00</time>
      </trkpt>
      <trkpt lat="46.73857" lon="5.66779">
        <ele>504</ele>
        <time>2021-08-01T15:05:05+02:00</time>
      </trkpt>
      <trkpt lat="46.7382" lon="5.66732">
        <ele>504</ele>
        <time>2021-08-01T15:05:10+02:00</time>
      </trkpt>
      <trkpt lat="46.73709" lon="5.66698">
        <ele>504</ele>
        <time>2021-08-01T15:05:15+02:00</time>
      </trkpt>
      <trkpt lat="46.73645" lon="5.66714">
        <ele>506</ele>
        <time>2021-08-01T15:05:20+02:00</time>
      </trkpt>
      <trkpt lat="46.73604" lon="5.66701">
        <ele>506</ele>
        <time>2021-08-01T15:05:25+02:00</time>
      </trkpt>
      <trkpt lat="46.73563" lon="5.66699">
        <ele>505</ele>
        <time>2021-08-01T15:05:30+02:00</time>
      </trkpt>
      <trkpt lat="46.73524" lon="5.66656">
        <ele>504</ele>
        <time>2021-08-01T15:05:35+02:00</time>
      </trkpt>
      <trkpt lat="46.73531" lon="5.66573">
        <ele>504</ele>
        <time>2021-08-01T15:05:40+02:00</time>
      </trkpt>
      <trkpt lat="46.73438" lon="5.66555">
        <ele>508</ele>
        <time>2021-08-01T15:05:45+02:00</time>
      </trkpt>
      <trkpt lat="46.73398" lon="5.66508">
        <ele>509</ele>
        <time>2021-08-01T15:05:50+02:00</time>
      </trkpt>
      <trkpt lat="46.73359" lon="5.66487">
        <ele>509</ele>
        <time>2021-08-01T15:05:55+02:00</time>
      </trkpt>
      <trkpt lat="46.73285" lon="5.66514">
        <ele>510</ele>
        <time>2021-08-01T15:06:00+02:00</time>
      </trkpt>
      <trkpt lat="46.73244" lon="5.66524">
        <ele>510</ele>
        <time>2021-08-01T15:06:05+02:00</time>
      </trkpt>
      <trkpt lat="46.73207" lon="5.66498">
        <ele>507</ele>
        <time>2021-08-01T15:06:10+02:00</time>
      </trkpt>
      <trkpt lat="46.73177" lon="5.66408">
        <ele>503</ele>
        <time>2021-08-01T15:06:15+02:00</time>
      </trkpt>
      <trkpt lat="46.73133" lon="5.66327">
        <ele>503</ele>
        <time>2021-08-01T15:06:20+02:00</time>
      </trkpt>
      <trkpt lat="46.73102" lon="5.66367">
        <ele>502</ele>
        <time>2021-08-01T15:06:25+02:00</time>
      </trkpt>
      <trkpt lat="46.73068" lon="5.66343">
        <ele>502</ele>
        <time>2021-08-01T15:06:30+02:00</time>
      </trkpt>
      <trkpt lat="46.73043" lon="5.66347">
        <ele>501</ele>
        <time>2021-08-01T15:06:35+02:00</time>
      </trkpt>
      <trkpt lat="46.73011" lon="5.66333">
        <ele>502</ele>
        <time>2021-08-01T15:06:40+02:00</time>
      </trkpt>
      <trkpt lat="46.72975" lon="5.66281">
        <ele>498</ele>
        <time>2021-08-01T15:06:45+02:00</time>
      </trkpt>
      <trkpt lat="46.72945" lon="5.66239">
        <ele>496</ele>
        <time>2021-08-01T15:06:50+02:00</time>
      </trkpt>
      <trkpt lat="46.72899" lon="5.66202">
        <ele>497</ele>
        <time>2021-08-01T15:06:55+02:00</time>
      </trkpt>
      <trkpt lat="46.72831" lon="5.66264">
        <ele>501</ele>
        <time>2021-08-01T15:07:00+02:00</time>
      </trkpt>
      <trkpt lat="46.72764" lon="5.66296">
        <ele>499</ele>
        <time>2021-08-01T15:07:05+02:00</time>
      </trkpt>
      <trkpt lat="46.72688" lon="5.66399">
        <ele>499</ele>
        <time>2021-08-01T15:07:10+02:00</time>
      </trkpt>
      <trkpt lat="46.72635" lon="5.66429">
        <ele>497</ele>
        <time>2021-08-01T15:07:15+02:00</time>
      </trkpt>
      <trkpt lat="46.72597" lon="5.66405">
        <ele>496</ele>
        <time>2021-08-01T15:07:20+02:00</time>
      </trkpt>
      <trkpt lat="46.72566" lon="5.6636">
        <ele>497</ele>
        <time>2021-08-01T15:07:25+02:00</time>
      </trkpt>
      <trkpt lat="46.72557" lon="5.66298">
        <ele>500</ele>
        <time>2021-08-01T15:07:30+02:00</time>
      </trkpt>
      <trkpt lat="46.72555" lon="5.66224">
        <ele>501</ele>
        <time>2021-08-01T15:07:35+02:00</time>
      </trkpt>
      <trkpt lat="46.72527" lon="5.6619">
        <ele>500</ele>
        <time>2021-08-01T15:07:40+02:00</time>
      </trkpt>
      <trkpt lat="46.72527" lon="5.66035">
        <ele>495</ele>
        <time>2021-08-01T15:07:45+02:00</time>
      </trkpt>
      <trkpt lat="46.7251" lon="5.6592">
        <ele>495</ele>
        <time>2021-08-01T15:07:50+02:00</time>
      </trkpt>
      <trkpt lat="46.72513" lon="5.65791">
        <ele>496</ele>
        <time>2021-08-01T15:07:55+02:00</time>
      </trkpt>
      <trkpt lat="46.72497" lon="5.65719">
        <ele>497</ele>
        <time>2021-08-01T15:08:00+02:00</time>
      </trkpt>
      <trkpt lat="46.7249" lon="5.6562">
        <ele>498</ele>
        <time>2021-08-01T15:08:05+02:00</time>
      </trkpt>
      <trkpt lat="46.72446" lon="5.65572">
        <ele>498</ele>
        <time>2021-08-01T15:08:10+02:00</time>
      </trkpt>
      <trkpt lat="46.72414" lon="5.6547">
        <ele>497</ele>
        <time>2021-08-01T15:08:15+02:00</time>
      </trkpt>
      <trkpt lat="46.72371" lon="5.65382">
        <ele>496</ele>
        <time>2021-08-01T15:08:20+02:00</time>
      </trkpt>
      <trkpt lat="46.72311" lon="5.65328">
        <ele>495</ele>
        <time>2021-08-01T15:08:25+02:00</time>
      </trkpt>
      <trkpt lat="46.72294" lon="5.65273">
        <ele>494</ele>
        <time>2021-08-01T15:08:30+02:00</time>
      </trkpt>
      <trkpt lat="46.7228" lon="5.65191">
        <ele>496</ele>
        <time>2021-08-01T15:08:35+02:00</time>
      </trkpt>
      <trkpt lat="46.7223" lon="5.65026">
        <ele>496</ele>
        <time>2021-08-01T15:08:40+02:00</time>
      </trkpt>
      <trkpt lat="46.7222" lon="5.64945">
        <ele>495</ele>
        <time>2021-08-01T15:08:45+02:00</time>
      </trkpt>
      <trkpt lat="46.72219" lon="5.64864">
        <ele>494</ele>
        <time>2021-08-01T15:08:50+02:00</time>
      </trkpt>
      <trkpt lat="46.72186" lon="5.64839">
        <ele>494</ele>
        <time>2021-08-01T15:08:55+02:00</time>
      </trkpt>
      <trkpt lat="46.72157" lon="5.64652">
        <ele>486</ele>
        <time>2021-08-01T15:09:00+02:00</time>
      </trkpt>
      <trkpt lat="46.72139" lon="5.64625">
        <ele>487</ele>
        <time>2021-08-01T15:09:05+02:00</time>
      </trkpt>
      <trkpt lat="46.72112" lon="5.64596">
        <ele>488</ele>
        <time>2021-08-01T15:09:10+02:00</time>
      </trkpt>
      <trkpt lat="46.72083" lon="5.64565">
        <ele>488</ele>
        <time>2021-08-01T15:09:15+02:00</time>
      </trkpt>
      <trkpt lat="46.72001" lon="5.6456">
        <ele>489</ele>
        <time>2021-08-01T15:09:20+02:00</time>
      </trkpt>
      <trkpt lat="46.71919" lon="5.64529">
        <ele>492</ele>
        <time>2021-08-01T15:09:25+02:00</time>
      </trkpt>
      <trkpt lat="46.71824" lon="5.64549">
        <ele>492</ele>
        <time>2021-08-01T15:09:30+02:00</time>
      </trkpt>
      <trkpt lat="46.71754" lon="5.64506">
        <ele>493</ele>
        <time>2021-08-01T15:09:35+02:00</time>
      </trkpt>
      <trkpt lat="46.71673" lon="5.64514">
        <ele>493</ele>
        <time>2021-08-01T15:09:40+02:00</time>
      </trkpt>
      <trkpt lat="46.71622" lon="5.6448">
        <ele>494</ele>
        <time>2021-08-01T15:09:45+02:00</time>
      </trkpt>
      <trkpt lat="46.71574" lon="5.64457">
        <ele>495</ele>
        <time>2021-08-01T15:09:50+02:00</time>
      </trkpt>
      <trkpt lat="46.71521" lon="5.64417">
        <ele>497</ele>
        <time>2021-08-01T15:09:55+02:00</time>
      </trkpt>
      <trkpt lat="46.71463" lon="5.64396">
        <ele>498</ele>
        <time>2021-08-01T15:10:00+02:00</time>
      </trkpt>
      <trkpt lat="46.71411" lon="5.64436">
        <ele>499</ele>
        <time>2021-08-01T15:10:05+02:00</time>
      </trkpt>
      <trkpt lat="46.71378" lon="5.64535">
        <ele>487</ele>
        <time>2021-08-01T15:10:10+02:00</time>
      </trkpt>
      <trkpt lat="46.71367" lon="5.64567">
        <ele>483</ele>
        <time>2021-08-01T15:10:15+02:00</time>
      </trkpt>
      <trkpt lat="46.71374" lon="5.64608">
        <ele>484</ele>
        <time>2021-08-01T15:10:20+02:00</time>
      </trkpt>
      <trkpt lat="46.71307" lon="5.64766">
        <ele>487</ele>
        <time>2021-08-01T15:10:25+02:00</time>
      </trkpt>
      <trkpt lat="46.71164" lon="5.64968">
        <ele>484</ele>
        <time>2021-08-01T15:10:30+02:00</time>
      </trkpt>
      <trkpt lat="46.71069" lon="5.65098">
        <ele>487</ele>
        <time>2021-08-01T15:10:35+02:00</time>
      </trkpt>
      <trkpt lat="46.71049" lon="5.65186">
        <ele>494</ele>
        <time>2021-08-01T15:10:40+02:00</time>
      </trkpt>
      <trkpt lat="46.71039" lon="5.65279">
        <ele>496</ele>
        <time>2021-08-01T15:10:45+02:00</time>
      </trkpt>
      <trkpt lat="46.70967" lon="5.65719">
        <ele>489</ele>
        <time>2021-08-01T15:10:50+02:00</time>
      </trkpt>
      <trkpt lat="46.70927" lon="5.65811">
        <ele>493</ele>
        <time>2021-08-01T15:10:55+02:00</time>
      </trkpt>
      <trkpt lat="46.70852" lon="5.65903">
        <ele>492</ele>
        <time>2021-08-01T15:11:00+02:00</time>
      </trkpt>
      <trkpt lat="46.70757" lon="5.65951">
        <ele>498</ele>
        <time>2021-08-01T15:11:05+02:00</time>
      </trkpt>
      <trkpt lat="46.70646" lon="5.6596">
        <ele>500</ele>
        <time>2021-08-01T15:11:10+02:00</time>
      </trkpt>
      <trkpt lat="46.70611" lon="5.65933">
        <ele>502</ele>
        <time>2021-08-01T15:11:15+02:00</time>
      </trkpt>
      <trkpt lat="46.70638" lon="5.65882">
        <ele>499</ele>
        <time>2021-08-01T15:11:20+02:00</time>
      </trkpt>
      <trkpt lat="46.70613" lon="5.65826">
        <ele>501</ele>
        <time>2021-08-01T15:11:25+02:00</time>
      </trkpt>
      <trkpt lat="46.70593" lon="5.65802">
        <ele>504</ele>
        <time>2021-08-01T15:11:30+02:00</time>
      </trkpt>
      <trkpt lat="46.70519" lon="5.65699">
        <ele>505</ele>
        <time>2021-08-01T15:11:35+02:00</time>
      </trkpt>
      <trkpt lat="46.70486" lon="5.6566">
        <ele>509</ele>
        <time>2021-08-01T15:11:40+02:00</time>
      </trkpt>
      <trkpt lat="46.70483" lon="5.65587">
        <ele>510</ele>
        <time>2021-08-01T15:11:45+02:00</time>
      </trkpt>
      <trkpt lat="46.70476" lon="5.65506">
        <ele>509</ele>
        <time>2021-08-01T15:11:50+02:00</time>
      </trkpt>
      <trkpt lat="46.70469" lon="5.65439">
        <ele>507</ele>
        <time>2021-08-01T15:11:55+02:00</time>
      </trkpt>
      <trkpt lat="46.7046" lon="5.65388">
        <ele>506</ele>
        <time>2021-08-01T15:12:00+02:00</time>
      </trkpt>
      <trkpt lat="46.70458" lon="5.65311">
        <ele>495</ele>
        <time>2021-08-01T15:12:05+02:00</time>
      </trkpt>
      <trkpt lat="46.70438" lon="5.65243">
        <ele>468</ele>
        <time>2021-08-01T15:12:10+02:00</time>
      </trkpt>
      <trkpt lat="46.70408" lon="5.65276">
        <ele>476</ele>
        <time>2021-08-01T15:12:15+02:00</time>
      </trkpt>
      <trkpt lat="46.70382" lon="5.65319">
        <ele>481</ele>
        <time>2021-08-01T15:12:20+02:00</time>
      </trkpt>
      <trkpt lat="46.70354" lon="5.65362">
        <ele>484</ele>
        <time>2021-08-01T15:12:25+02:00</time>
      </trkpt>
      <trkpt lat="46.70323" lon="5.65407">
        <ele>491</ele>
        <time>2021-08-01T15:12:30+02:00</time>
      </trkpt>
      <trkpt lat="46.70305" lon="5.65437">
        <ele>489</ele>
        <time>2021-08-01T15:12:35+02:00</time>
      </trkpt>
      <trkpt lat="46.7029" lon="5.65467">
        <ele>491</ele>
        <time>2021-08-01T15:12:40+02:00</time>
      </trkpt>
      <trkpt lat="46.70264" lon="5.65484">
        <ele>487</ele>
        <time>2021-08-01T15:12:45+02:00</time>
      </trkpt>
      <trkpt lat="46.70239" lon="5.65506">
        <ele>482</ele>
        <time>2021-08-01T15:12:50+02:00</time>
      </trkpt>
      <trkpt lat="46.70224" lon="5.65559">
        <ele>485</ele>
        <time>2021-08-01T15:12:55+02:00</time>
      </trkpt>
      <trkpt lat="46.70195" lon="5.65607">
        <ele>481</ele>
        <time>2021-08-01T15:13:00+02:00</time>
      </trkpt>
      <trkpt lat="46.70183" lon="5.65666">
        <ele>493</ele>
        <time>2021-08-01T15:13:05+02:00</time>
      </trkpt>
      <trkpt lat="46.70136" lon="5.65705">
        <ele>489</ele>
        <time>2021-08-01T15:13:10+02:00</time>
      </trkpt>
      <trkpt lat="46.70105" lon="5.65748">
        <ele>499</ele>
        <time>2021-08-01T15:13:15+02:00</time>
      </trkpt>
      <trkpt lat="46.70067" lon="5.65771">
        <ele>490</ele>
        <time>2021-08-01T15:13:20+02:00</time>
      </trkpt>
      <trkpt lat="46.70036" lon="5.65793">
        <ele>479</ele>
        <time>2021-08-01T15:13:25+02:00</time>
      </trkpt>
      <trkpt lat="46.69987" lon="5.65836">
        <ele>475</ele>
        <time>2021-08-01T15:13:30+02:00</time>
      </trkpt>
      <trkpt lat="46.69972" lon="5.65887">
        <ele>484</ele>
        <time>2021-08-01T15:13:35+02:00</time>
      </trkpt>
      <trkpt lat="46.69941" lon="5.65956">
        <ele>489</ele>
        <time>2021-08-01T15:13:40+02:00</time>
      </trkpt>
      <trkpt lat="46.69905" lon="5.66012">
        <ele>498</ele>
        <time>2021-08-01T15:13:45+02:00</time>
      </trkpt>
      <trkpt lat="46.69866" lon="5.66033">
        <ele>495</ele>
        <time>2021-08-01T15:13:50+02:00</time>
      </trkpt>
      <trkpt lat="46.69838" lon="5.66059">
        <ele>501</ele>
        <time>2021-08-01T15:13:55+02:00</time>
      </trkpt>
      <trkpt lat="46.69812" lon="5.66078">
        <ele>510</ele>
        <time>2021-08-01T15:14:00+02:00</time>
      </trkpt>
      <trkpt lat="46.69765" lon="5.66091">
        <ele>513</ele>
        <time>2021-08-01T15:14:05+02:00</time>
      </trkpt>
      <trkpt lat="46.6974" lon="5.66044">
        <ele>509</ele>
        <time>2021-08-01T15:14:10+02:00</time>
      </trkpt>
      <trkpt lat="46.69722" lon="5.65991">
        <ele>499</ele>
        <time>2021-08-01T15:14:15+02:00</time>
      </trkpt>
      <trkpt lat="46.69635" lon="5.66033">
        <ele>510</ele>
        <time>2021-08-01T15:14:20+02:00</time>
      </trkpt>
      <trkpt lat="46.69583" lon="5.66013">
        <ele>509</ele>
        <time>2021-08-01T15:14:25+02:00</time>
      </trkpt>
      <trkpt lat="46.69553" lon="5.65946">
        <ele>504</ele>
        <time>2021-08-01T15:14:30+02:00</time>
      </trkpt>
      <trkpt lat="46.69537" lon="5.65835">
        <ele>502</ele>
        <time>2021-08-01T15:14:35+02:00</time>
      </trkpt>
      <trkpt lat="46.69541" lon="5.65719">
        <ele>496</ele>
        <time>2021-08-01T15:14:40+02:00</time>
      </trkpt>
      <trkpt lat="46.69542" lon="5.65624">
        <ele>500</ele>
        <time>2021-08-01T15:14:45+02:00</time>
      </trkpt>
      <trkpt lat="46.69561" lon="5.65516">
        <ele>500</ele>
        <time>2021-08-01T15:14:50+02:00</time>
      </trkpt>
      <trkpt lat="46.69555" lon="5.65406">
        <ele>502</ele>
        <time>2021-08-01T15:14:55+02:00</time>
      </trkpt>
      <trkpt lat="46.69573" lon="5.653">
        <ele>505</ele>
        <time>2021-08-01T15:15:00+02:00</time>
      </trkpt>
      <trkpt lat="46.69537" lon="5.65195">
        <ele>510</ele>
        <time>2021-08-01T15:15:05+02:00</time>
      </trkpt>
      <trkpt lat="46.69507" lon="5.65142">
        <ele>512</ele>
        <time>2021-08-01T15:15:10+02:00</time>
      </trkpt>
      <trkpt lat="46.69455" lon="5.65086">
        <ele>515</ele>
        <time>2021-08-01T15:15:15+02:00</time>
      </trkpt>
      <trkpt lat="46.69406" lon="5.65013">
        <ele>513</ele>
        <time>2021-08-01T15:15:20+02:00</time>
      </trkpt>
      <trkpt lat="46.69343" lon="5.64978">
        <ele>512</ele>
        <time>2021-08-01T15:15:25+02:00</time>
      </trkpt>
      <trkpt lat="46.69303" lon="5.64904">
        <ele>512</ele>
        <time>2021-08-01T15:15:30+02:00</time>
      </trkpt>
      <trkpt lat="46.69231" lon="5.64882">
        <ele>515</ele>
        <time>2021-08-01T15:15:35+02:00</time>
      </trkpt>
      <trkpt lat="46.69198" lon="5.64836">
        <ele>516</ele>
        <time>2021-08-01T15:15:40+02:00</time>
      </trkpt>
      <trkpt lat="46.69162" lon="5.64804">
        <ele>516</ele>
        <time>2021-08-01T15:15:45+02:00</time>
      </trkpt>
      <trkpt lat="46.69101" lon="5.64754">
        <ele>516</ele>
        <time>2021-08-01T15:15:50+02:00</time>
      </trkpt>
      <trkpt lat="46.69075" lon="5.64653">
        <ele>516</ele>
        <time>2021-08-01T15:15:55+02:00</time>
      </trkpt>
      <trkpt lat="46.69023" lon="5.64596">
        <ele>516</ele>
        <time>2021-08-01T15:16:00+02:00</time>
      </trkpt>
      <trkpt lat="46.69004" lon="5.64493">
        <ele>516</ele>
        <time>2021-08-01T15:16:05+02:00</time>
      </trkpt>
      <trkpt lat="46.68952" lon="5.64426">
        <ele>515</ele>
        <time>2021-08-01T15:16:10+02:00</time>
      </trkpt>
      <trkpt lat="46.68891" lon="5.64381">
        <ele>511</ele>
        <time>2021-08-01T15:16:15+02:00</time>
      </trkpt>
      <trkpt lat="46.68876" lon="5.64279">
        <ele>511</ele>
        <time>2021-08-01T15:16:20+02:00</time>
      </trkpt>
      <trkpt lat="46.68814" lon="5.64221">
        <ele>504</ele>
        <time>2021-08-01T15:16:25+02:00</time>
      </trkpt>
      <trkpt lat="46.6879" lon="5.64117">
        <ele>503</ele>
        <time>2021-08-01T15:16:30+02:00</time>
      </trkpt>
      <trkpt lat="46.68777" lon="5.64049">
        <ele>501</ele>
        <time>2021-08-01T15:16:35+02:00</time>
      </trkpt>
      <trkpt lat="46.68764" lon="5.63968">
        <ele>501</ele>
        <time>2021-08-01T15:16:40+02:00</time>
      </trkpt>
      <trkpt lat="46.68795" lon="5.63988">
        <ele>499</ele>
        <time>2021-08-01T15:16:45+02:00</time>
      </trkpt>
      <trkpt lat="46.68833" lon="5.63987">
        <ele>496</ele>
        <time>2021-08-01T15:16:50+02:00</time>
      </trkpt>
      <trkpt lat="46.68844" lon="5.6402">
        <ele>496</ele>
        <time>2021-08-01T15:16:55+02:00</time>
      </trkpt>
      <trkpt lat="46.68863" lon="5.64061">
        <ele>501</ele>
        <time>2021-08-01T15:17:00+02:00</time>
      </trkpt>
      <trkpt lat="46.68871" lon="5.64031">
        <ele>491</ele>
        <time>2021-08-01T15:17:05+02:00</time>
      </trkpt>
      <trkpt lat="46.6889" lon="5.64048">
        <ele>494</ele>
        <time>2021-08-01T15:17:10+02:00</time>
      </trkpt>
      <trkpt lat="46.6889" lon="5.64011">
        <ele>478</ele>
        <time>2021-08-01T15:17:15+02:00</time>
      </trkpt>
      <trkpt lat="46.68871" lon="5.63959">
        <ele>468</ele>
        <time>2021-08-01T15:17:20+02:00</time>
      </trkpt>
      <trkpt lat="46.68852" lon="5.63917">
        <ele>410</ele>
        <time>2021-08-01T15:17:25+02:00</time>
      </trkpt>
      <trkpt lat="46.68851" lon="5.63864">
        <ele>476</ele>
        <time>2021-08-01T15:17:30+02:00</time>
      </trkpt>
      <trkpt lat="46.68863" lon="5.63813">
        <ele>473</ele>
        <time>2021-08-01T15:17:35+02:00</time>
      </trkpt>
      <trkpt lat="46.68895" lon="5.6377">
        <ele>473</ele>
        <time>2021-08-01T15:17:40+02:00</time>
      </trkpt>
      <trkpt lat="46.68942" lon="5.63748">
        <ele>476</ele>
        <time>2021-08-01T15:17:45+02:00</time>
      </trkpt>
      <trkpt lat="46.68977" lon="5.63751">
        <ele>471</ele>
        <time>2021-08-01T15:17:50+02:00</time>
      </trkpt>
      <trkpt lat="46.6899" lon="5.63788">
        <ele>442</ele>
        <time>2021-08-01T15:17:55+02:00</time>
      </trkpt>
      <trkpt lat="46.69002" lon="5.6382">
        <ele>417</ele>
        <time>2021-08-01T15:18:00+02:00</time>
      </trkpt>
      <trkpt lat="46.69026" lon="5.63813">
        <ele>418</ele>
        <time>2021-08-01T15:18:05+02:00</time>
      </trkpt>
      <trkpt lat="46.69053" lon="5.63841">
        <ele>395</ele>
        <time>2021-08-01T15:18:10+02:00</time>
      </trkpt>
      <trkpt lat="46.69084" lon="5.63863">
        <ele>386</ele>
        <time>2021-08-01T15:18:15+02:00</time>
      </trkpt>
      <trkpt lat="46.69127" lon="5.63863">
        <ele>383</ele>
        <time>2021-08-01T15:18:20+02:00</time>
      </trkpt>
      <trkpt lat="46.69145" lon="5.63888">
        <ele>376</ele>
        <time>2021-08-01T15:18:25+02:00</time>
      </trkpt>
      <trkpt lat="46.69171" lon="5.63904">
        <ele>371</ele>
        <time>2021-08-01T15:18:30+02:00</time>
      </trkpt>
      <trkpt lat="46.69214" lon="5.63912">
        <ele>362</ele>
        <time>2021-08-01T15:18:35+02:00</time>
      </trkpt>
      <trkpt lat="46.69249" lon="5.63927">
        <ele>354</ele>
        <time>2021-08-01T15:18:40+02:00</time>
      </trkpt>
      <trkpt lat="46.69286" lon="5.6393">
        <ele>351</ele>
        <time>2021-08-01T15:18:45+02:00</time>
      </trkpt>
      <trkpt lat="46.69322" lon="5.63938">
        <ele>347</ele>
        <time>2021-08-01T15:18:50+02:00</time>
      </trkpt>
      <trkpt lat="46.69358" lon="5.63951">
        <ele>344</ele>
        <time>2021-08-01T15:18:55+02:00</time>
      </trkpt>
      <trkpt lat="46.69392" lon="5.63961">
        <ele>341</ele>
        <time>2021-08-01T15:19:00+02:00</time>
      </trkpt>
      <trkpt lat="46.69433" lon="5.6399">
        <ele>340</ele>
        <time>2021-08-01T15:19:05+02:00</time>
      </trkpt>
      <trkpt lat="46.69484" lon="5.64036">
        <ele>340</ele>
        <time>2021-08-01T15:19:10+02:00</time>
      </trkpt>
      <trkpt lat="46.69526" lon="5.64067">
        <ele>338</ele>
        <time>2021-08-01T15:19:15+02:00</time>
      </trkpt>
      <trkpt lat="46.69573" lon="5.64096">
        <ele>339</ele>
        <time>2021-08-01T15:19:20+02:00</time>
      </trkpt>
      <trkpt lat="46.69611" lon="5.64107">
        <ele>341</ele>
        <time>2021-08-01T15:19:25+02:00</time>
      </trkpt>
      <trkpt lat="46.69657" lon="5.64133">
        <ele>337</ele>
        <time>2021-08-01T15:19:30+02:00</time>
      </trkpt>
      <trkpt lat="46.69689" lon="5.64141">
        <ele>336</ele>
        <time>2021-08-01T15:19:35+02:00</time>
      </trkpt>
      <trkpt lat="46.69729" lon="5.64143">
        <ele>338</ele>
        <time>2021-08-01T15:19:40+02:00</time>
      </trkpt>
      <trkpt lat="46.69787" lon="5.64148">
        <ele>339</ele>
        <time>2021-08-01T15:19:45+02:00</time>
      </trkpt>
      <trkpt lat="46.69834" lon="5.64148">
        <ele>344</ele>
        <time>2021-08-01T15:19:50+02:00</time>
      </trkpt>
      <trkpt lat="46.69876" lon="5.64143">
        <ele>344</ele>
        <time>2021-08-01T15:19:55+02:00</time>
      </trkpt>
      <trkpt lat="46.69918" lon="5.64149">
        <ele>336</ele>
        <time>2021-08-01T15:20:00+02:00</time>
      </trkpt>
      <trkpt lat="46.69962" lon="5.6416">
        <ele>333</ele>
        <time>2021-08-01T15:20:05+02:00</time>
      </trkpt>
      <trkpt lat="46.69997" lon="5.64178">
        <ele>331</ele>
        <time>2021-08-01T15:20:10+02:00</time>
      </trkpt>
      <trkpt lat="46.70041" lon="5.6421">
        <ele>332</ele>
        <time>2021-08-01T15:20:15+02:00</time>
      </trkpt>
      <trkpt lat="46.7008" lon="5.64237">
        <ele>327</ele>
        <time>2021-08-01T15:20:20+02:00</time>
      </trkpt>
      <trkpt lat="46.7012" lon="5.64273">
        <ele>330</ele>
        <time>2021-08-01T15:20:25+02:00</time>
      </trkpt>
      <trkpt lat="46.7016" lon="5.64308">
        <ele>331</ele>
        <time>2021-08-01T15:20:30+02:00</time>
      </trkpt>
      <trkpt lat="46.70207" lon="5.64352">
        <ele>332</ele>
        <time>2021-08-01T15:20:35+02:00</time>
      </trkpt>
      <trkpt lat="46.702" lon="5.64325">
        <ele>337</ele>
        <time>2021-08-01T15:20:40+02:00</time>
      </trkpt>
      <trkpt lat="46.70237" lon="5.64353">
        <ele>339</ele>
        <time>2021-08-01T15:20:45+02:00</time>
      </trkpt>
      <trkpt lat="46.70273" lon="5.64369">
        <ele>344</ele>
        <time>2021-08-01T15:20:50+02:00</time>
      </trkpt>
      <trkpt lat="46.70301" lon="5.64387">
        <ele>345</ele>
        <time>2021-08-01T15:20:55+02:00</time>
      </trkpt>
      <trkpt lat="46.70345" lon="5.64431">
        <ele>340</ele>
        <time>2021-08-01T15:21:00+02:00</time>
      </trkpt>
      <trkpt lat="46.70383" lon="5.64472">
        <ele>336</ele>
        <time>2021-08-01T15:21:05+02:00</time>
      </trkpt>
      <trkpt lat="46.70415" lon="5.6451">
        <ele>331</ele>
        <time>2021-08-01T15:21:10+02:00</time>
      </trkpt>
      <trkpt lat="46.7045" lon="5.64566">
        <ele>319</ele>
        <time>2021-08-01T15:21:15+02:00</time>
      </trkpt>
      <trkpt lat="46.70425" lon="5.64593">
        <ele>314</ele>
        <time>2021-08-01T15:21:20+02:00</time>
      </trkpt>
      <trkpt lat="46.70422" lon="5.64621">
        <ele>314</ele>
        <time>2021-08-01T15:21:25+02:00</time>
      </trkpt>
      <trkpt lat="46.70479" lon="5.64664">
        <ele>313</ele>
        <time>2021-08-01T15:21:30+02:00</time>
      </trkpt>
      <trkpt lat="46.70507" lon="5.64677">
        <ele>313</ele>
        <time>2021-08-01T15:21:35+02:00</time>
      </trkpt>
      <trkpt lat="46.70549" lon="5.64674">
        <ele>311</ele>
        <time>2021-08-01T15:21:40+02:00</time>
      </trkpt>
      <trkpt lat="46.70592" lon="5.64653">
        <ele>311</ele>
        <time>2021-08-01T15:21:45+02:00</time>
      </trkpt>
      <trkpt lat="46.70625" lon="5.64675">
        <ele>307</ele>
        <time>2021-08-01T15:21:50+02:00</time>
      </trkpt>
      <trkpt lat="46.70681" lon="5.64663">
        <ele>306</ele>
        <time>2021-08-01T15:21:55+02:00</time>
      </trkpt>
      <trkpt lat="46.70718" lon="5.64653">
        <ele>307</ele>
        <time>2021-08-01T15:22:00+02:00</time>
      </trkpt>
      <trkpt lat="46.70768" lon="5.64625">
        <ele>312</ele>
        <time>2021-08-01T15:22:05+02:00</time>
      </trkpt>
      <trkpt lat="46.70794" lon="5.64613">
        <ele>312</ele>
        <time>2021-08-01T15:22:10+02:00</time>
      </trkpt>
      <trkpt lat="46.70826" lon="5.64605">
        <ele>308</ele>
        <time>2021-08-01T15:22:15+02:00</time>
      </trkpt>
      <trkpt lat="46.70847" lon="5.64592">
        <ele>307</ele>
        <time>2021-08-01T15:22:20+02:00</time>
      </trkpt>
      <trkpt lat="46.70867" lon="5.64575">
        <ele>309</ele>
        <time>2021-08-01T15:22:25+02:00</time>
      </trkpt>
      <trkpt lat="46.70894" lon="5.64537">
        <ele>313</ele>
        <time>2021-08-01T15:22:30+02:00</time>
      </trkpt>
      <trkpt lat="46.70906" lon="5.6453">
        <ele>312</ele>
        <time>2021-08-01T15:22:35+02:00</time>
      </trkpt>
      <trkpt lat="46.70939" lon="5.64506">
        <ele>311</ele>
        <time>2021-08-01T15:22:40+02:00</time>
      </trkpt>
      <trkpt lat="46.71021" lon="5.64438">
        <ele>315</ele>
        <time>2021-08-01T15:22:45+02:00</time>
      </trkpt>
      <trkpt lat="46.71085" lon="5.64332">
        <ele>309</ele>
        <time>2021-08-01T15:22:50+02:00</time>
      </trkpt>
      <trkpt lat="46.711" lon="5.643">
        <ele>311</ele>
        <time>2021-08-01T15:22:55+02:00</time>
      </trkpt>
      <trkpt lat="46.71108" lon="5.64269">
        <ele>311</ele>
        <time>2021-08-01T15:23:00+02:00</time>
      </trkpt>
      <trkpt lat="46.71118" lon="5.64208">
        <ele>311</ele>
        <time>2021-08-01T15:23:05+02:00</time>
      </trkpt>
      <trkpt lat="46.71132" lon="5.64122">
        <ele>308</ele>
        <time>2021-08-01T15:23:10+02:00</time>
      </trkpt>
      <trkpt lat="46.71132" lon="5.64099">
        <ele>308</ele>
        <time>2021-08-01T15:23:15+02:00</time>
      </trkpt>
      <trkpt lat="46.71128" lon="5.64036">
        <ele>310</ele>
        <time>2021-08-01T15:23:20+02:00</time>
      </trkpt>
      <trkpt lat="46.71126" lon="5.63982">
        <ele>311</ele>
        <time>2021-08-01T15:23:25+02:00</time>
      </trkpt>
      <trkpt lat="46.71128" lon="5.63936">
        <ele>311</ele>
        <time>2021-08-01T15:23:30+02:00</time>
      </trkpt>
      <trkpt lat="46.71135" lon="5.63898">
        <ele>310</ele>
        <time>2021-08-01T15:23:35+02:00</time>
      </trkpt>
      <trkpt lat="46.71145" lon="5.63867">
        <ele>307</ele>
        <time>2021-08-01T15:23:40+02:00</time>
      </trkpt>
      <trkpt lat="46.71168" lon="5.63815">
        <ele>297</ele>
        <time>2021-08-01T15:23:45+02:00</time>
      </trkpt>
      <trkpt lat="46.71187" lon="5.63778">
        <ele>298</ele>
        <time>2021-08-01T15:23:50+02:00</time>
      </trkpt>
      <trkpt lat="46.712" lon="5.63746">
        <ele>298</ele>
        <time>2021-08-01T15:23:55+02:00</time>
      </trkpt>
      <trkpt lat="46.71205" lon="5.63727">
        <ele>299</ele>
        <time>2021-08-01T15:24:00+02:00</time>
      </trkpt>
      <trkpt lat="46.7121" lon="5.63683">
        <ele>299</ele>
        <time>2021-08-01T15:24:05+02:00</time>
      </trkpt>
      <trkpt lat="46.71228" lon="5.63589">
        <ele>295</ele>
        <time>2021-08-01T15:24:10+02:00</time>
      </trkpt>
      <trkpt lat="46.71235" lon="5.63543">
        <ele>293</ele>
        <time>2021-08-01T15:24:15+02:00</time>
      </trkpt>
      <trkpt lat="46.71244" lon="5.63472">
        <ele>291</ele>
        <time>2021-08-01T15:24:20+02:00</time>
      </trkpt>
      <trkpt lat="46.71242" lon="5.63449">
        <ele>291</ele>
        <time>2021-08-01T15:24:25+02:00</time>
      </trkpt>
      <trkpt lat="46.71236" lon="5.63436">
        <ele>293</ele>
        <time>2021-08-01T15:24:30+02:00</time>
      </trkpt>
      <trkpt lat="46.71221" lon="5.63403">
        <ele>296</ele>
        <time>2021-08-01T15:24:35+02:00</time>
      </trkpt>
      <trkpt lat="46.7121" lon="5.6337">
        <ele>297</ele>
        <time>2021-08-01T15:24:40+02:00</time>
      </trkpt>
      <trkpt lat="46.71204" lon="5.63351">
        <ele>297</ele>
        <time>2021-08-01T15:24:45+02:00</time>
      </trkpt>
      <trkpt lat="46.71204" lon="5.63334">
        <ele>296</ele>
        <time>2021-08-01T15:24:50+02:00</time>
      </trkpt>
      <trkpt lat="46.71206" lon="5.63298">
        <ele>294</ele>
        <time>2021-08-01T15:24:55+02:00</time>
      </trkpt>
      <trkpt lat="46.71208" lon="5.63274">
        <ele>293</ele>
        <time>2021-08-01T15:25:00+02:00</time>
      </trkpt>
      <trkpt lat="46.71206" lon="5.63253">
        <ele>292</ele>
        <time>2021-08-01T15:25:05+02:00</time>
      </trkpt>
      <trkpt lat="46.71204" lon="5.63233">
        <ele>293</ele>
        <time>2021-08-01T15:25:10+02:00</time>
      </trkpt>
      <trkpt lat="46.71199" lon="5.6322">
        <ele>295</ele>
        <time>2021-08-01T15:25:15+02:00</time>
      </trkpt>
      <trkpt lat="46.71189" lon="5.63207">
        <ele>296</ele>
        <time>2021-08-01T15:25:20+02:00</time>
      </trkpt>
      <trkpt lat="46.71149" lon="5.63174">
        <ele>300</ele>
        <time>2021-08-01T15:25:25+02:00</time>
      </trkpt>
      <trkpt lat="46.7116" lon="5.63143">
        <ele>304</ele>
        <time>2021-08-01T15:25:30+02:00</time>
      </trkpt>
      <trkpt lat="46.71177" lon="5.63107">
        <ele>311</ele>
        <time>2021-08-01T15:25:35+02:00</time>
      </trkpt>
      <trkpt lat="46.71207" lon="5.63095">
        <ele>313</ele>
        <time>2021-08-01T15:25:40+02:00</time>
      </trkpt>
      <trkpt lat="46.71205" lon="5.63076">
        <ele>317</ele>
        <time>2021-08-01T15:25:45+02:00</time>
      </trkpt>
      <trkpt lat="46.71188" lon="5.63057">
        <ele>322</ele>
        <time>2021-08-01T15:25:50+02:00</time>
      </trkpt>
      <trkpt lat="46.71186" lon="5.63043">
        <ele>326</ele>
        <time>2021-08-01T15:25:55+02:00</time>
      </trkpt>
      <trkpt lat="46.71199" lon="5.63029">
        <ele>329</ele>
        <time>2021-08-01T15:26:00+02:00</time>
      </trkpt>
      <trkpt lat="46.71211" lon="5.63028">
        <ele>329</ele>
        <time>2021-08-01T15:26:05+02:00</time>
      </trkpt>
      <trkpt lat="46.71229" lon="5.63015">
        <ele>333</ele>
        <time>2021-08-01T15:26:10+02:00</time>
      </trkpt>
      <trkpt lat="46.71227" lon="5.62978">
        <ele>340</ele>
        <time>2021-08-01T15:26:15+02:00</time>
      </trkpt>
      <trkpt lat="46.71224" lon="5.62935">
        <ele>345</ele>
        <time>2021-08-01T15:26:20+02:00</time>
      </trkpt>
      <trkpt lat="46.71211" lon="5.62914">
        <ele>347</ele>
        <time>2021-08-01T15:26:25+02:00</time>
      </trkpt>
      <trkpt lat="46.71202" lon="5.62889">
        <ele>351</ele>
        <time>2021-08-01T15:26:30+02:00</time>
      </trkpt>
      <trkpt lat="46.71209" lon="5.62867">
        <ele>354</ele>
        <time>2021-08-01T15:26:35+02:00</time>
      </trkpt>
      <trkpt lat="46.71229" lon="5.62845">
        <ele>357</ele>
        <time>2021-08-01T15:26:40+02:00</time>
      </trkpt>
      <trkpt lat="46.71238" lon="5.62836">
        <ele>358</ele>
        <time>2021-08-01T15:26:45+02:00</time>
      </trkpt>
      <trkpt lat="46.7124" lon="5.62809">
        <ele>363</ele>
        <time>2021-08-01T15:26:50+02:00</time>
      </trkpt>
      <trkpt lat="46.71241" lon="5.6278">
        <ele>368</ele>
        <time>2021-08-01T15:26:55+02:00</time>
      </trkpt>
      <trkpt lat="46.71233" lon="5.62756">
        <ele>373</ele>
        <time>2021-08-01T15:27:00+02:00</time>
      </trkpt>
      <trkpt lat="46.71206" lon="5.6273">
        <ele>378</ele>
        <time>2021-08-01T15:27:05+02:00</time>
      </trkpt>
      <trkpt lat="46.71208" lon="5.62725">
        <ele>379</ele>
        <time>2021-08-01T15:27:10+02:00</time>
      </trkpt>
      <trkpt lat="46.7121" lon="5.62712">
        <ele>381</ele>
        <time>2021-08-01T15:27:15+02:00</time>
      </trkpt>
      <trkpt lat="46.71208" lon="5.62706">
        <ele>382</ele>
        <time>2021-08-01T15:27:20+02:00</time>
      </trkpt>
      <trkpt lat="46.7121" lon="5.62702">
        <ele>382</ele>
        <time>2021-08-01T15:27:25+02:00</time>
      </trkpt>
      <trkpt lat="46.71215" lon="5.62691">
        <ele>384</ele>
        <time>2021-08-01T15:27:30+02:00</time>
      </trkpt>
      <trkpt lat="46.7122" lon="5.6266">
        <ele>389</ele>
        <time>2021-08-01T15:27:35+02:00</time>
      </trkpt>
      <trkpt lat="46.71229" lon="5.62566">
        <ele>404</ele>
        <time>2021-08-01T15:27:40+02:00</time>
      </trkpt>
      <trkpt lat="46.71237" lon="5.62508">
        <ele>414</ele>
        <time>2021-08-01T15:27:45+02:00</time>
      </trkpt>
      <trkpt lat="46.71254" lon="5.62437">
        <ele>426</ele>
        <time>2021-08-01T15:27:50+02:00</time>
      </trkpt>
      <trkpt lat="46.71277" lon="5.62366">
        <ele>439</ele>
        <time>2021-08-01T15:27:55+02:00</time>
      </trkpt>
      <trkpt lat="46.71296" lon="5.62322">
        <ele>449</ele>
        <time>2021-08-01T15:28:00+02:00</time>
      </trkpt>
      <trkpt lat="46.71329" lon="5.62274">
        <ele>459</ele>
        <time>2021-08-01T15:28:05+02:00</time>
      </trkpt>
      <trkpt lat="46.7135" lon="5.62238">
        <ele>466</ele>
        <time>2021-08-01T15:28:10+02:00</time>
      </trkpt>
      <trkpt lat="46.71372" lon="5.62192">
        <ele>473</ele>
        <time>2021-08-01T15:28:15+02:00</time>
      </trkpt>
      <trkpt lat="46.71386" lon="5.62151">
        <ele>479</ele>
        <time>2021-08-01T15:28:20+02:00</time>
      </trkpt>
      <trkpt lat="46.71413" lon="5.62127">
        <ele>479</ele>
        <time>2021-08-01T15:28:25+02:00</time>
      </trkpt>
      <trkpt lat="46.71474" lon="5.62129">
        <ele>480</ele>
        <time>2021-08-01T15:28:30+02:00</time>
      </trkpt>
      <trkpt lat="46.71498" lon="5.62133">
        <ele>481</ele>
        <time>2021-08-01T15:28:35+02:00</time>
      </trkpt>
      <trkpt lat="46.7153" lon="5.62127">
        <ele>483</ele>
        <time>2021-08-01T15:28:40+02:00</time>
      </trkpt>
      <trkpt lat="46.71544" lon="5.621">
        <ele>485</ele>
        <time>2021-08-01T15:28:45+02:00</time>
      </trkpt>
      <trkpt lat="46.71562" lon="5.6212">
        <ele>485</ele>
        <time>2021-08-01T15:28:50+02:00</time>
      </trkpt>
      <trkpt lat="46.71584" lon="5.62139">
        <ele>486</ele>
        <time>2021-08-01T15:28:55+02:00</time>
      </trkpt>
      <trkpt lat="46.71643" lon="5.62098">
        <ele>486</ele>
        <time>2021-08-01T15:29:00+02:00</time>
      </trkpt>
      <trkpt lat="46.71655" lon="5.62095">
        <ele>485</ele>
        <time>2021-08-01T15:29:05+02:00</time>
      </trkpt>
      <trkpt lat="46.71706" lon="5.62103">
        <ele>485</ele>
        <time>2021-08-01T15:29:10+02:00</time>
      </trkpt>
      <trkpt lat="46.71763" lon="5.62113">
        <ele>485</ele>
        <time>2021-08-01T15:29:15+02:00</time>
      </trkpt>
      <trkpt lat="46.71799" lon="5.62114">
        <ele>487</ele>
        <time>2021-08-01T15:29:20+02:00</time>
      </trkpt>
      <trkpt lat="46.71824" lon="5.62114">
        <ele>488</ele>
        <time>2021-08-01T15:29:25+02:00</time>
      </trkpt>
      <trkpt lat="46.71853" lon="5.62116">
        <ele>490</ele>
        <time>2021-08-01T15:29:30+02:00</time>
      </trkpt>
      <trkpt lat="46.71885" lon="5.6212">
        <ele>491</ele>
        <time>2021-08-01T15:29:35+02:00</time>
      </trkpt>
      <trkpt lat="46.71909" lon="5.62128">
        <ele>492</ele>
        <time>2021-08-01T15:29:40+02:00</time>
      </trkpt>
      <trkpt lat="46.71931" lon="5.62133">
        <ele>491</ele>
        <time>2021-08-01T15:29:45+02:00</time>
      </trkpt>
      <trkpt lat="46.71944" lon="5.62142">
        <ele>491</ele>
        <time>2021-08-01T15:29:50+02:00</time>
      </trkpt>
      <trkpt lat="46.71957" lon="5.62156">
        <ele>492</ele>
        <time>2021-08-01T15:29:55+02:00</time>
      </trkpt>
      <trkpt lat="46.71978" lon="5.62187">
        <ele>492</ele>
        <time>2021-08-01T15:30:00+02:00</time>
      </trkpt>
      <trkpt lat="46.71994" lon="5.62205">
        <ele>493</ele>
        <time>2021-08-01T15:30:05+02:00</time>
      </trkpt>
      <trkpt lat="46.72015" lon="5.62212">
        <ele>494</ele>
        <time>2021-08-01T15:30:10+02:00</time>
      </trkpt>
      <trkpt lat="46.7208" lon="5.62214">
        <ele>497</ele>
        <time>2021-08-01T15:30:15+02:00</time>
      </trkpt>
      <trkpt lat="46.72126" lon="5.62216">
        <ele>496</ele>
        <time>2021-08-01T15:30:20+02:00</time>
      </trkpt>
      <trkpt lat="46.72166" lon="5.62218">
        <ele>495</ele>
        <time>2021-08-01T15:30:25+02:00</time>
      </trkpt>
      <trkpt lat="46.72208" lon="5.62226">
        <ele>494</ele>
        <time>2021-08-01T15:30:30+02:00</time>
      </trkpt>
      <trkpt lat="46.7227" lon="5.62238">
        <ele>493</ele>
        <time>2021-08-01T15:30:35+02:00</time>
      </trkpt>
      <trkpt lat="46.72283" lon="5.62238">
        <ele>493</ele>
        <time>2021-08-01T15:30:40+02:00</time>
      </trkpt>
      <trkpt lat="46.72311" lon="5.62248">
        <ele>493</ele>
        <time>2021-08-01T15:30:45+02:00</time>
      </trkpt>
      <trkpt lat="46.72333" lon="5.62262">
        <ele>492</ele>
        <time>2021-08-01T15:30:50+02:00</time>
      </trkpt>
      <trkpt lat="46.72369" lon="5.62297">
        <ele>490</ele>
        <time>2021-08-01T15:30:55+02:00</time>
      </trkpt>
      <trkpt lat="46.72397" lon="5.62314">
        <ele>489</ele>
        <time>2021-08-01T15:31:00+02:00</time>
      </trkpt>
      <trkpt lat="46.72432" lon="5.62337">
        <ele>487</ele>
        <time>2021-08-01T15:31:05+02:00</time>
      </trkpt>
      <trkpt lat="46.72466" lon="5.62353">
        <ele>485</ele>
        <time>2021-08-01T15:31:10+02:00</time>
      </trkpt>
      <trkpt lat="46.72498" lon="5.6236">
        <ele>483</ele>
        <time>2021-08-01T15:31:15+02:00</time>
      </trkpt>
      <trkpt lat="46.72514" lon="5.62372">
        <ele>481</ele>
        <time>2021-08-01T15:31:20+02:00</time>
      </trkpt>
      <trkpt lat="46.72542" lon="5.62416">
        <ele>479</ele>
        <time>2021-08-01T15:31:25+02:00</time>
      </trkpt>
      <trkpt lat="46.7259" lon="5.62466">
        <ele>475</ele>
        <time>2021-08-01T15:31:30+02:00</time>
      </trkpt>
      <trkpt lat="46.72636" lon="5.62502">
        <ele>476</ele>
        <time>2021-08-01T15:31:35+02:00</time>
      </trkpt>
      <trkpt lat="46.72664" lon="5.62524">
        <ele>472</ele>
        <time>2021-08-01T15:31:40+02:00</time>
      </trkpt>
      <trkpt lat="46.727" lon="5.62562">
        <ele>468</ele>
        <time>2021-08-01T15:31:45+02:00</time>
      </trkpt>
      <trkpt lat="46.72755" lon="5.62644">
        <ele>454</ele>
        <time>2021-08-01T15:31:50+02:00</time>
      </trkpt>
      <trkpt lat="46.72804" lon="5.62719">
        <ele>437</ele>
        <time>2021-08-01T15:31:55+02:00</time>
      </trkpt>
      <trkpt lat="46.72876" lon="5.62785">
        <ele>420</ele>
        <time>2021-08-01T15:32:00+02:00</time>
      </trkpt>
      <trkpt lat="46.72917" lon="5.62789">
        <ele>420</ele>
        <time>2021-08-01T15:32:05+02:00</time>
      </trkpt>
      <trkpt lat="46.72935" lon="5.62798">
        <ele>415</ele>
        <time>2021-08-01T15:32:10+02:00</time>
      </trkpt>
      <trkpt lat="46.7293" lon="5.62843">
        <ele>398</ele>
        <time>2021-08-01T15:32:15+02:00</time>
      </trkpt>
      <trkpt lat="46.72929" lon="5.62851">
        <ele>396</ele>
        <time>2021-08-01T15:32:20+02:00</time>
      </trkpt>
      <trkpt lat="46.72933" lon="5.62864">
        <ele>392</ele>
        <time>2021-08-01T15:32:25+02:00</time>
      </trkpt>
      <trkpt lat="46.72955" lon="5.62898">
        <ele>382</ele>
        <time>2021-08-01T15:32:30+02:00</time>
      </trkpt>
      <trkpt lat="46.73004" lon="5.62954">
        <ele>372</ele>
        <time>2021-08-01T15:32:35+02:00</time>
      </trkpt>
      <trkpt lat="46.73026" lon="5.62973">
        <ele>368</ele>
        <time>2021-08-01T15:32:40+02:00</time>
      </trkpt>
      <trkpt lat="46.73038" lon="5.62979">
        <ele>366</ele>
        <time>2021-08-01T15:32:45+02:00</time>
      </trkpt>
      <trkpt lat="46.73075" lon="5.62954">
        <ele>365</ele>
        <time>2021-08-01T15:32:50+02:00</time>
      </trkpt>
      <trkpt lat="46.73085" lon="5.62955">
        <ele>364</ele>
        <time>2021-08-01T15:32:55+02:00</time>
      </trkpt>
      <trkpt lat="46.73149" lon="5.62982">
        <ele>348</ele>
        <time>2021-08-01T15:33:00+02:00</time>
      </trkpt>
      <trkpt lat="46.73175" lon="5.62974">
        <ele>345</ele>
        <time>2021-08-01T15:33:05+02:00</time>
      </trkpt>
      <trkpt lat="46.73208" lon="5.62967">
        <ele>342</ele>
        <time>2021-08-01T15:33:10+02:00</time>
      </trkpt>
      <trkpt lat="46.73233" lon="5.62971">
        <ele>338</ele>
        <time>2021-08-01T15:33:15+02:00</time>
      </trkpt>
      <trkpt lat="46.73281" lon="5.62998">
        <ele>326</ele>
        <time>2021-08-01T15:33:20+02:00</time>
      </trkpt>
      <trkpt lat="46.73306" lon="5.63004">
        <ele>322</ele>
        <time>2021-08-01T15:33:25+02:00</time>
      </trkpt>
      <trkpt lat="46.734" lon="5.63021">
        <ele>305</ele>
        <time>2021-08-01T15:33:30+02:00</time>
      </trkpt>
      <trkpt lat="46.73426" lon="5.6302">
        <ele>302</ele>
        <time>2021-08-01T15:33:35+02:00</time>
      </trkpt>
      <trkpt lat="46.73435" lon="5.63021">
        <ele>301</ele>
        <time>2021-08-01T15:33:40+02:00</time>
      </trkpt>
      <trkpt lat="46.73445" lon="5.6303">
        <ele>299</ele>
        <time>2021-08-01T15:33:45+02:00</time>
      </trkpt>
      <trkpt lat="46.73463" lon="5.6305">
        <ele>294</ele>
        <time>2021-08-01T15:33:50+02:00</time>
      </trkpt>
      <trkpt lat="46.73528" lon="5.63058">
        <ele>287</ele>
        <time>2021-08-01T15:33:55+02:00</time>
      </trkpt>
      <trkpt lat="46.73585" lon="5.63054">
        <ele>281</ele>
        <time>2021-08-01T15:34:00+02:00</time>
      </trkpt>
      <trkpt lat="46.73644" lon="5.63022">
        <ele>276</ele>
        <time>2021-08-01T15:34:05+02:00</time>
      </trkpt>
      <trkpt lat="46.73663" lon="5.62997">
        <ele>274</ele>
        <time>2021-08-01T15:34:10+02:00</time>
      </trkpt>
      <trkpt lat="46.73677" lon="5.62957">
        <ele>275</ele>
        <time>2021-08-01T15:34:15+02:00</time>
      </trkpt>
      <trkpt lat="46.73711" lon="5.62901">
        <ele>275</ele>
        <time>2021-08-01T15:34:20+02:00</time>
      </trkpt>
      <trkpt lat="46.73743" lon="5.62889">
        <ele>272</ele>
        <time>2021-08-01T15:34:25+02:00</time>
      </trkpt>
      <trkpt lat="46.73788" lon="5.62912">
        <ele>270</ele>
        <time>2021-08-01T15:34:30+02:00</time>
      </trkpt>
      <trkpt lat="46.73822" lon="5.62941">
        <ele>270</ele>
        <time>2021-08-01T15:34:35+02:00</time>
      </trkpt>
      <trkpt lat="46.73839" lon="5.62878">
        <ele>270</ele>
        <time>2021-08-01T15:34:40+02:00</time>
      </trkpt>
      <trkpt lat="46.7387" lon="5.62861">
        <ele>271</ele>
        <time>2021-08-01T15:34:45+02:00</time>
      </trkpt>
      <trkpt lat="46.73913" lon="5.62848">
        <ele>272</ele>
        <time>2021-08-01T15:34:50+02:00</time>
      </trkpt>
      <trkpt lat="46.73954" lon="5.62862">
        <ele>276</ele>
        <time>2021-08-01T15:34:55+02:00</time>
      </trkpt>
      <trkpt lat="46.73998" lon="5.62865">
        <ele>278</ele>
        <time>2021-08-01T15:35:00+02:00</time>
      </trkpt>
      <trkpt lat="46.74056" lon="5.62856">
        <ele>278</ele>
        <time>2021-08-01T15:35:05+02:00</time>
      </trkpt>
      <trkpt lat="46.74128" lon="5.62845">
        <ele>278</ele>
        <time>2021-08-01T15:35:10+02:00</time>
      </trkpt>
      <trkpt lat="46.74164" lon="5.62818">
        <ele>276</ele>
        <time>2021-08-01T15:35:15+02:00</time>
      </trkpt>
      <trkpt lat="46.74207" lon="5.62763">
        <ele>269</ele>
        <time>2021-08-01T15:35:20+02:00</time>
      </trkpt>
      <trkpt lat="46.74254" lon="5.62741">
        <ele>268</ele>
        <time>2021-08-01T15:35:25+02:00</time>
      </trkpt>
      <trkpt lat="46.74298" lon="5.62755">
        <ele>268</ele>
        <time>2021-08-01T15:35:30+02:00</time>
      </trkpt>
      <trkpt lat="46.74367" lon="5.62712">
        <ele>266</ele>
        <time>2021-08-01T15:35:35+02:00</time>
      </trkpt>
      <trkpt lat="46.74363" lon="5.62611">
        <ele>264</ele>
        <time>2021-08-01T15:35:40+02:00</time>
      </trkpt>
      <trkpt lat="46.74408" lon="5.62635">
        <ele>265</ele>
        <time>2021-08-01T15:35:45+02:00</time>
      </trkpt>
      <trkpt lat="46.74432" lon="5.62639">
        <ele>265</ele>
        <time>2021-08-01T15:35:50+02:00</time>
      </trkpt>
      <trkpt lat="46.74455" lon="5.62639">
        <ele>266</ele>
        <time>2021-08-01T15:35:55+02:00</time>
      </trkpt>
    </trkseg>
  </trk>
</gpx>